Accueil
METAR-TAF:

METAR-TAF

Aéroports :

Kwajalein, Îles Marshall

latitude: 08-43N, longitude: 167-44E, altitude: 3 m

Observation

Le bulletin a été fait il y a 28 minutes, à 23:00 UTC
Vent 9 kt de est
Température 30°C
Humidité 75%
Pression 1011 hPa
Visibilité: 16.1 km
Nuages fragmentés à une hauteur de 5000 ft

METAR: PKWA 172300Z AUTO 08009KT 10SM BKN050 30/25 A2986 RMK AO2 T03010251

Heure: 11:28 (23:28 UTC)

Prévision

Le bulletin a été fait il y a 6 heures et 7 minutes, à 17:21 UTC
Prévision valable du 17 à 18 UTC au 18 à 18 UTC
Vent 14 kt de est
Visibilité: 10 km
Quelques nuages à une hauteur de 1800 ft
Nuages épars à une hauteur de 2500 ft
Nuages fragmentés à une hauteur de 13000 ft
averses à proximité,

TAF: PKWA 171721Z 1718/1818 09014KT P6SM VCSH FEW018 SCT025 BKN130

Observations et prévisions météorologiques de plus de 4000 aéroports (messages METAR et TAF).

Les stations disponibles sont représentées par des disques jaunes et rouges sur la carte.

Passer la souris dessus pour voir le nom de la station.

Cliquer dessus pour voir les observations et prévisions météorologiques.

Pour changer de carte: cliquez sur les boutons verts avec une croix noire pour zoomer, sur le bouton vert avec un tiret pour effectuer un zoom arrière, ou sur les flèches vertes pour les cartes adjacentes.


METAR-TAF: